OIBS  Sirri Island Airport

Add Bookmark

Iran

Status IATA
Operational SXI
Latitude Longitude
25° 54' 32" N 54° 32' 21" E
25.908899 54.539398
Local (DST + 5) UTC (GMT + 4)
Jul 31, 2014 08:02 Jul 31, 2014 15:32
Sunrise-Sunset Local UTC
Begin Civil Twilight 05:51 01:21
Sunrise 06:16 01:46
Sunset 07:40 15:10
End Civil Twilight 08:04 15:34

Current Weather

METAR Observed VFR
OIBS 311500Z 00000KT CAVOK 34/25 Q0996 Thu, Jul 31, 2014 @ 15:00 UTC
(32 Minutes ago)
Visual Flight Rules

Decoded METAR

Wind Visibility Clouds Conditions
Calm 10 km or more
  • Clear skies
  • No significant weather
Temperatures Readings Precipitation
Current Temp 34°C (93°F)
Dewpoint 25°C (77°F)
Heat Index 42°C (107°F)
Humidity 59%
Altimeter 29.41"Hg
Sea Level Pressure 996mb
Field Elevation 45.93'
None Recorded

Additional weather within a 92.6km radius of OIBS

Map ICAO Location
OIBA 49.4km E (094°)
OIBL 74.8km N (022°)
OIBK 88.3km N (321°)

24 Hour Weather History

Loading
-

24 Hour Weather Graphs

Loading
-

CheckWX.com is intended as a tool to help pilots better visualize weather data. It is not intended as a substitute for an official weather briefing obtained from a Flight Service Station. CheckWX.com does not meet the FAA requirements for an official pre-flight weather briefing. Therefore, it's important that pilots still call and obtain an official FSS pre-flight weather briefing.